Hlavní strana
METAR-TAF:

METAR-TAF

Letiště :

Letiště Orio al Serio

Bergamo, Itálie

zeměpisná šířka: 45-40N, zeměpisná délka: 009-42E, výška: 238 m

Aktuální stav počasí

Zpráva byla vytvořena před 14 minutami, v 01:20 UTC
Severní vítr 5 kt
Teplota 0°C
Vlhkost vzduchu 64%
Tlak 1017 hPa
Viditelnost 10 km a více
Polojasno ve výšce 9000 ft

METAR: LIME 130120Z 36005KT 9999 SCT090 M00/M06 Q1017 NOSIG

Čas: 02:34 (01:34 UTC)

Předpověď počasí

Zpráva byla vytvořena před 2 hodinami a 34 minutami, v 23:00 UTC
Předpověď platná od 13 v 00 UTC do 13 v 24 UTC
vítr z různých směrů 5 kt
Viditelnost 10 km a více
Oblačno až skoro zataženo ve výšce 6000 ft

TAF: LIME 122300Z 1300/1324 VRB05KT 9999 BKN060

Stav a předpovědi počasí z více než 4 000 letišť (zprávy METAR a TAF).

Červené a žluté tečky na mapě představují dostupné meteorologické stanice.

Když kurzor umístíte na tečku, zobrazí se název stanice.

Pak kliknutím zobrazíte stav a předpověď počasí.

Chcete-li změnit mapu, kliknutím na zelené tlačítko se znaménkem +mapu přiblížíte, kliknutím na zelené tlačítko se znaménkem – mapu oddálíte a kliknutím na zelené šipky přejdete na sousední mapy.


METAR-TAF: